Bf Esperanza — V2BR8 — position and weather

sailwx.info

Track history (hours):
 
Tides and Currents Weather Stations Pressure Air Temp Water Temp Dewpoint Dewpoint Depression Visibility Wind Speed Wind Dir Waves Ship Positions

Bf Esperanza

Last reported at 2016-Jun-27 04:34 UTC. Time now 2016-Jun-27 16:52 UTC.
Position N 38°60' E 009°40'.

Length 135 m; draft 6.6 m.

Type: Cargo ship. MMSI: 304907000.

Date/timePositionNaut miles runAvg speedWind from/ knotsBaromVisibWave heightAir tempDewpointWater temp
2016-Jun-27 04:34N 38°60' E 009°40'1312.5
2016-Jun-27 03:32N 38°49' E 009°31'1312.0
2016-Jun-27 02:29N 38°38' E 009°23'  
2016-Jun-22 02:30N 36°57' E 003°06'1313.8
2016-Jun-22 01:33N 36°53' E 002°51'6414.5
2016-Jun-21 21:07N 36°39' E 001°33'813.9
2016-Jun-21 20:32N 36°37' E 001°23'1414.3
2016-Jun-21 19:32N 36°35' E 001°05'11614.4
2016-Jun-21 11:30N 35°58' W 001°10'1714.8
2016-Jun-21 10:23N 35°45' W 001°23'45 6.5
2016-Jun-21 03:30N 35°06' W 001°52'0 0.0
2016-Jun-21 02:32N 35°06' W 001°52'0 0.0
2016-Jun-21 01:32N 35°06' W 001°52'0 0.0
2016-Jun-21 00:31N 35°06' W 001°52'0 0.0
2016-Jun-20 23:31N 35°06' W 001°52'0 0.0
2016-Jun-20 22:33N 35°06' W 001°52'0 0.0
2016-Jun-20 21:15N 35°06' W 001°52'0 0.0
2016-Jun-20 20:32N 35°06' W 001°52'0 0.0
2016-Jun-20 19:32N 35°06' W 001°52'0 0.0
2016-Jun-20 18:32N 35°06' W 001°52'0 0.0
2016-Jun-20 17:31N 35°06' W 001°52'0 0.0
2016-Jun-20 16:31N 35°06' W 001°52'0 0.0
2016-Jun-20 15:33N 35°06' W 001°52'0 0.0
2016-Jun-20 14:33N 35°06' W 001°52'0 0.0
2016-Jun-20 13:32N 35°06' W 001°52'0 0.0
2016-Jun-20 10:30N 35°06' W 001°52'4410.8
2016-Jun-20 06:27N 35°46' W 001°29'3012.6
2016-Jun-20 04:03N 36°13' W 001°12'713.6
2016-Jun-20 03:33N 36°19' W 001°09'1313.6
2016-Jun-20 02:33N 36°31' W 001°00'1413.5
2016-Jun-20 01:32N 36°43' W 000°52'1313.7
2016-Jun-20 00:33N 36°55' W 000°46'1414.0
2016-Jun-19 23:33N 37°08' W 000°38'1313.4
2016-Jun-19 22:33N 37°20' W 000°32'1313.0
2016-Jun-19 21:33N 37°32' W 000°26'1413.3
2016-Jun-19 20:31N 37°45' W 000°18'14112.8
2016-Jun-19 09:33N 39°43' E 001°20'1413.5
2016-Jun-19 08:33N 39°54' E 001°30'1414.0
2016-Jun-19 07:33N 40°05' E 001°41'1413.7
2016-Jun-19 06:33N 40°16' E 001°52'1413.6
2016-Jun-19 05:34N 40°27' E 002°02'1413.7
2016-Jun-19 04:33N 40°38' E 002°13'1313.5
2016-Jun-19 03:34N 40°49' E 002°24'1413.4
2016-Jun-19 02:33N 40°60' E 002°34'16211.6
2016-Jun-18 12:32N 43°09' E 004°48'1312.7
2016-Jun-18 11:30N 43°10' E 005°05'  
Track history (hours):
 
Tides and Currents Weather Stations Pressure Air Temp Water Temp Dewpoint Dewpoint Depression Visibility Wind Speed Wind Dir Waves Ship Positions

Bf Esperanza

Last reported at 2016-Jun-27 04:34 UTC. Time now 2016-Jun-27 16:52 UTC.
Position N 38°60' E 009°40'.

Length 135 m; draft 6.6 m.

Type: Cargo ship. MMSI: 304907000.

Date/timePositionNaut miles runAvg speedWind from/ knotsBaromVisibWave heightAir tempDewpointWater temp
2016-Jun-27 04:34N 38°60' E 009°40'1312.5
2016-Jun-27 03:32N 38°49' E 009°31'1312.0
2016-Jun-27 02:29N 38°38' E 009°23'  
2016-Jun-22 02:30N 36°57' E 003°06'1313.8
2016-Jun-22 01:33N 36°53' E 002°51'6414.5
2016-Jun-21 21:07N 36°39' E 001°33'813.9
2016-Jun-21 20:32N 36°37' E 001°23'1414.3
2016-Jun-21 19:32N 36°35' E 001°05'11614.4
2016-Jun-21 11:30N 35°58' W 001°10'1714.8
2016-Jun-21 10:23N 35°45' W 001°23'45 6.5
2016-Jun-21 03:30N 35°06' W 001°52'0 0.0
2016-Jun-21 02:32N 35°06' W 001°52'0 0.0
2016-Jun-21 01:32N 35°06' W 001°52'0 0.0
2016-Jun-21 00:31N 35°06' W 001°52'0 0.0
2016-Jun-20 23:31N 35°06' W 001°52'0 0.0
2016-Jun-20 22:33N 35°06' W 001°52'0 0.0
2016-Jun-20 21:15N 35°06' W 001°52'0 0.0
2016-Jun-20 20:32N 35°06' W 001°52'0 0.0
2016-Jun-20 19:32N 35°06' W 001°52'0 0.0
2016-Jun-20 18:32N 35°06' W 001°52'0 0.0
2016-Jun-20 17:31N 35°06' W 001°52'0 0.0
2016-Jun-20 16:31N 35°06' W 001°52'0 0.0
2016-Jun-20 15:33N 35°06' W 001°52'0 0.0
2016-Jun-20 14:33N 35°06' W 001°52'0 0.0
2016-Jun-20 13:32N 35°06' W 001°52'0 0.0
2016-Jun-20 10:30N 35°06' W 001°52'4410.8
2016-Jun-20 06:27N 35°46' W 001°29'3012.6
2016-Jun-20 04:03N 36°13' W 001°12'713.6
2016-Jun-20 03:33N 36°19' W 001°09'1313.6
2016-Jun-20 02:33N 36°31' W 001°00'1413.5
2016-Jun-20 01:32N 36°43' W 000°52'1313.7
2016-Jun-20 00:33N 36°55' W 000°46'1414.0
2016-Jun-19 23:33N 37°08' W 000°38'1313.4
2016-Jun-19 22:33N 37°20' W 000°32'1313.0
2016-Jun-19 21:33N 37°32' W 000°26'1413.3
2016-Jun-19 20:31N 37°45' W 000°18'14112.8
2016-Jun-19 09:33N 39°43' E 001°20'1413.5
2016-Jun-19 08:33N 39°54' E 001°30'1414.0
2016-Jun-19 07:33N 40°05' E 001°41'1413.7
2016-Jun-19 06:33N 40°16' E 001°52'1413.6
2016-Jun-19 05:34N 40°27' E 002°02'1413.7
2016-Jun-19 04:33N 40°38' E 002°13'1313.5
2016-Jun-19 03:34N 40°49' E 002°24'1413.4
2016-Jun-19 02:33N 40°60' E 002°34'16211.6
2016-Jun-18 12:32N 43°09' E 004°48'1312.7
2016-Jun-18 11:30N 43°10' E 005°05'  

Dump ship's entire track history